sensor_id;sensor_type;location;lat;lon;timestamp;P1;durP1;ratioP1;P2;durP2;ratioP2
19883;SDS011;10104;50.732;10.174;2023-04-06T00:00:57;9.30;;;6.13;;
19883;SDS011;10104;50.732;10.174;2023-04-06T00:03:19;9.13;;;7.23;;
19883;SDS011;10104;50.732;10.174;2023-04-06T00:05:41;10.23;;;6.73;;
19883;SDS011;10104;50.732;10.174;2023-04-06T00:08:03;12.10;;;6.50;;
19883;SDS011;10104;50.732;10.174;2023-04-06T00:10:24;10.13;;;6.77;;
19883;SDS011;10104;50.732;10.174;2023-04-06T00:12:46;8.73;;;6.33;;
19883;SDS011;10104;50.732;10.174;2023-04-06T00:15:08;10.10;;;7.17;;
19883;SDS011;10104;50.732;10.174;2023-04-06T00:17:29;8.83;;;6.93;;
19883;SDS011;10104;50.732;10.174;2023-04-06T00:19:51;9.90;;;6.43;;
19883;SDS011;10104;50.732;10.174;2023-04-06T00:22:13;10.30;;;7.10;;
19883;SDS011;10104;50.732;10.174;2023-04-06T00:24:34;8.47;;;6.20;;
19883;SDS011;10104;50.732;10.174;2023-04-06T00:26:56;10.07;;;6.83;;
19883;SDS011;10104;50.732;10.174;2023-04-06T00:29:17;10.37;;;6.67;;
19883;SDS011;10104;50.732;10.174;2023-04-06T00:31:39;9.00;;;6.47;;
19883;SDS011;10104;50.732;10.174;2023-04-06T00:34:00;12.03;;;7.30;;
19883;SDS011;10104;50.732;10.174;2023-04-06T00:36:22;9.43;;;6.83;;
19883;SDS011;10104;50.732;10.174;2023-04-06T00:38:43;10.87;;;6.50;;
19883;SDS011;10104;50.732;10.174;2023-04-06T00:41:05;10.33;;;6.47;;
19883;SDS011;10104;50.732;10.174;2023-04-06T00:43:26;8.20;;;6.70;;
19883;SDS011;10104;50.732;10.174;2023-04-06T00:45:48;9.43;;;6.90;;
19883;SDS011;10104;50.732;10.174;2023-04-06T00:48:09;9.73;;;7.07;;
19883;SDS011;10104;50.732;10.174;2023-04-06T00:50:31;9.40;;;6.90;;
19883;SDS011;10104;50.732;10.174;2023-04-06T00:52:53;8.37;;;6.60;;
19883;SDS011;10104;50.732;10.174;2023-04-06T00:55:16;10.37;;;7.70;;
19883;SDS011;10104;50.732;10.174;2023-04-06T00:57:38;9.37;;;6.63;;
19883;SDS011;10104;50.732;10.174;2023-04-06T00:59:59;9.23;;;6.80;;
19883;SDS011;10104;50.732;10.174;2023-04-06T01:02:21;9.37;;;7.47;;
19883;SDS011;10104;50.732;10.174;2023-04-06T01:04:43;12.53;;;7.30;;
19883;SDS011;10104;50.732;10.174;2023-04-06T01:07:04;12.20;;;6.63;;
19883;SDS011;10104;50.732;10.174;2023-04-06T01:09:29;10.17;;;6.63;;
19883;SDS011;10104;50.732;10.174;2023-04-06T01:11:51;10.43;;;6.20;;
19883;SDS011;10104;50.732;10.174;2023-04-06T01:14:14;11.50;;;7.00;;
19883;SDS011;10104;50.732;10.174;2023-04-06T01:16:36;10.63;;;6.83;;
19883;SDS011;10104;50.732;10.174;2023-04-06T01:18:57;9.93;;;6.73;;
19883;SDS011;10104;50.732;10.174;2023-04-06T01:21:19;12.13;;;7.40;;
19883;SDS011;10104;50.732;10.174;2023-04-06T01:23:44;12.63;;;6.93;;
19883;SDS011;10104;50.732;10.174;2023-04-06T01:26:07;9.23;;;6.83;;
19883;SDS011;10104;50.732;10.174;2023-04-06T01:28:28;10.53;;;6.90;;
19883;SDS011;10104;50.732;10.174;2023-04-06T01:30:50;7.70;;;6.60;;
19883;SDS011;10104;50.732;10.174;2023-04-06T01:33:12;9.90;;;6.83;;
19883;SDS011;10104;50.732;10.174;2023-04-06T01:35:33;8.30;;;6.37;;
19883;SDS011;10104;50.732;10.174;2023-04-06T01:37:55;11.87;;;6.53;;
19883;SDS011;10104;50.732;10.174;2023-04-06T01:40:16;11.33;;;6.43;;
19883;SDS011;10104;50.732;10.174;2023-04-06T01:42:38;10.93;;;6.37;;
19883;SDS011;10104;50.732;10.174;2023-04-06T01:44:59;8.73;;;6.37;;
19883;SDS011;10104;50.732;10.174;2023-04-06T01:47:21;8.17;;;6.87;;
19883;SDS011;10104;50.732;10.174;2023-04-06T01:49:43;12.67;;;7.40;;
19883;SDS011;10104;50.732;10.174;2023-04-06T01:52:04;10.33;;;6.73;;
19883;SDS011;10104;50.732;10.174;2023-04-06T01:54:26;9.93;;;6.80;;
19883;SDS011;10104;50.732;10.174;2023-04-06T01:56:47;11.60;;;7.37;;
19883;SDS011;10104;50.732;10.174;2023-04-06T01:59:11;9.80;;;6.67;;
19883;SDS011;10104;50.732;10.174;2023-04-06T02:01:33;7.87;;;6.53;;
19883;SDS011;10104;50.732;10.174;2023-04-06T02:03:54;9.77;;;6.70;;
19883;SDS011;10104;50.732;10.174;2023-04-06T02:06:16;10.87;;;6.73;;
19883;SDS011;10104;50.732;10.174;2023-04-06T02:08:37;9.13;;;6.57;;
19883;SDS011;10104;50.732;10.174;2023-04-06T02:10:59;10.10;;;7.17;;
19883;SDS011;10104;50.732;10.174;2023-04-06T02:13:20;9.00;;;6.67;;
19883;SDS011;10104;50.732;10.174;2023-04-06T02:15:42;13.57;;;8.70;;
19883;SDS011;10104;50.732;10.174;2023-04-06T02:18:03;11.57;;;7.70;;
19883;SDS011;10104;50.732;10.174;2023-04-06T02:20:25;8.43;;;6.70;;
19883;SDS011;10104;50.732;10.174;2023-04-06T02:22:46;10.33;;;6.90;;
19883;SDS011;10104;50.732;10.174;2023-04-06T02:25:08;9.37;;;6.63;;
19883;SDS011;10104;50.732;10.174;2023-04-06T02:27:29;8.77;;;6.70;;
19883;SDS011;10104;50.732;10.174;2023-04-06T02:29:51;9.90;;;6.73;;
19883;SDS011;10104;50.732;10.174;2023-04-06T02:32:12;9.57;;;6.90;;
19883;SDS011;10104;50.732;10.174;2023-04-06T02:34:34;10.33;;;7.03;;
19883;SDS011;10104;50.732;10.174;2023-04-06T02:36:55;10.40;;;6.63;;
19883;SDS011;10104;50.732;10.174;2023-04-06T02:39:17;11.03;;;6.97;;
19883;SDS011;10104;50.732;10.174;2023-04-06T02:41:39;10.23;;;7.13;;
19883;SDS011;10104;50.732;10.174;2023-04-06T02:44:00;10.47;;;7.30;;
19883;SDS011;10104;50.732;10.174;2023-04-06T02:46:22;8.80;;;6.60;;
19883;SDS011;10104;50.732;10.174;2023-04-06T02:48:43;9.03;;;6.23;;
19883;SDS011;10104;50.732;10.174;2023-04-06T02:51:05;10.53;;;6.57;;
19883;SDS011;10104;50.732;10.174;2023-04-06T02:53:27;9.27;;;6.80;;
19883;SDS011;10104;50.732;10.174;2023-04-06T02:55:49;9.83;;;6.50;;
19883;SDS011;10104;50.732;10.174;2023-04-06T02:58:10;13.23;;;6.60;;
19883;SDS011;10104;50.732;10.174;2023-04-06T03:00:31;9.43;;;6.57;;
19883;SDS011;10104;50.732;10.174;2023-04-06T03:02:53;11.10;;;7.07;;
19883;SDS011;10104;50.732;10.174;2023-04-06T03:05:15;9.37;;;6.63;;
19883;SDS011;10104;50.732;10.174;2023-04-06T03:07:37;9.33;;;6.90;;
19883;SDS011;10104;50.732;10.174;2023-04-06T03:09:58;8.23;;;6.53;;
19883;SDS011;10104;50.732;10.174;2023-04-06T03:12:20;11.43;;;6.80;;
19883;SDS011;10104;50.732;10.174;2023-04-06T03:14:42;10.83;;;7.03;;
19883;SDS011;10104;50.732;10.174;2023-04-06T03:17:03;9.47;;;6.50;;
19883;SDS011;10104;50.732;10.174;2023-04-06T03:19:24;11.20;;;6.97;;
19883;SDS011;10104;50.732;10.174;2023-04-06T03:21:46;12.47;;;7.00;;
19883;SDS011;10104;50.732;10.174;2023-04-06T03:24:08;8.40;;;7.00;;
19883;SDS011;10104;50.732;10.174;2023-04-06T03:26:29;16.63;;;10.93;;
19883;SDS011;10104;50.732;10.174;2023-04-06T03:28:51;13.27;;;9.10;;
19883;SDS011;10104;50.732;10.174;2023-04-06T03:31:12;12.70;;;8.00;;
19883;SDS011;10104;50.732;10.174;2023-04-06T03:33:34;12.07;;;8.40;;
19883;SDS011;10104;50.732;10.174;2023-04-06T03:35:55;14.97;;;10.43;;
19883;SDS011;10104;50.732;10.174;2023-04-06T03:38:17;14.43;;;9.40;;
19883;SDS011;10104;50.732;10.174;2023-04-06T03:40:38;14.73;;;9.07;;
19883;SDS011;10104;50.732;10.174;2023-04-06T03:43:00;14.30;;;10.17;;
19883;SDS011;10104;50.732;10.174;2023-04-06T03:45:22;11.70;;;9.80;;
19883;SDS011;10104;50.732;10.174;2023-04-06T03:47:44;13.73;;;10.50;;
19883;SDS011;10104;50.732;10.174;2023-04-06T03:50:05;12.07;;;8.80;;
19883;SDS011;10104;50.732;10.174;2023-04-06T03:52:27;11.90;;;8.53;;
19883;SDS011;10104;50.732;10.174;2023-04-06T03:54:49;10.87;;;7.87;;
19883;SDS011;10104;50.732;10.174;2023-04-06T03:57:10;11.67;;;7.90;;
19883;SDS011;10104;50.732;10.174;2023-04-06T03:59:32;10.90;;;8.20;;
19883;SDS011;10104;50.732;10.174;2023-04-06T04:01:53;13.90;;;10.50;;
19883;SDS011;10104;50.732;10.174;2023-04-06T04:04:15;14.20;;;9.73;;
19883;SDS011;10104;50.732;10.174;2023-04-06T04:06:36;12.67;;;8.67;;
19883;SDS011;10104;50.732;10.174;2023-04-06T04:08:58;11.03;;;7.53;;
19883;SDS011;10104;50.732;10.174;2023-04-06T04:11:19;12.80;;;9.50;;
19883;SDS011;10104;50.732;10.174;2023-04-06T04:13:41;13.07;;;9.53;;
19883;SDS011;10104;50.732;10.174;2023-04-06T04:16:03;15.83;;;10.63;;
19883;SDS011;10104;50.732;10.174;2023-04-06T04:18:24;18.87;;;10.50;;
19883;SDS011;10104;50.732;10.174;2023-04-06T04:20:46;18.20;;;12.00;;
19883;SDS011;10104;50.732;10.174;2023-04-06T04:23:07;12.60;;;8.53;;
19883;SDS011;10104;50.732;10.174;2023-04-06T04:25:29;12.47;;;8.67;;
19883;SDS011;10104;50.732;10.174;2023-04-06T04:27:50;11.50;;;8.00;;
19883;SDS011;10104;50.732;10.174;2023-04-06T04:30:12;13.07;;;7.10;;
19883;SDS011;10104;50.732;10.174;2023-04-06T04:32:33;9.63;;;6.80;;
19883;SDS011;10104;50.732;10.174;2023-04-06T04:34:55;8.97;;;7.20;;
19883;SDS011;10104;50.732;10.174;2023-04-06T04:37:17;10.30;;;6.20;;
19883;SDS011;10104;50.732;10.174;2023-04-06T04:39:39;10.90;;;6.87;;
19883;SDS011;10104;50.732;10.174;2023-04-06T04:42:00;9.63;;;6.50;;
19883;SDS011;10104;50.732;10.174;2023-04-06T04:44:21;9.87;;;6.43;;
19883;SDS011;10104;50.732;10.174;2023-04-06T04:46:43;11.53;;;6.77;;
19883;SDS011;10104;50.732;10.174;2023-04-06T04:49:04;7.63;;;6.23;;
19883;SDS011;10104;50.732;10.174;2023-04-06T04:51:26;8.67;;;6.73;;
19883;SDS011;10104;50.732;10.174;2023-04-06T04:53:48;10.20;;;6.63;;
19883;SDS011;10104;50.732;10.174;2023-04-06T04:56:09;7.77;;;6.17;;
19883;SDS011;10104;50.732;10.174;2023-04-06T04:58:31;10.00;;;6.67;;
19883;SDS011;10104;50.732;10.174;2023-04-06T05:00:52;8.83;;;6.50;;
19883;SDS011;10104;50.732;10.174;2023-04-06T05:03:16;10.77;;;6.60;;
19883;SDS011;10104;50.732;10.174;2023-04-06T05:05:41;11.37;;;7.13;;
19883;SDS011;10104;50.732;10.174;2023-04-06T05:08:03;12.50;;;6.43;;
19883;SDS011;10104;50.732;10.174;2023-04-06T05:10:24;12.10;;;6.60;;
19883;SDS011;10104;50.732;10.174;2023-04-06T05:12:46;9.00;;;6.60;;
19883;SDS011;10104;50.732;10.174;2023-04-06T05:15:07;7.90;;;6.50;;
19883;SDS011;10104;50.732;10.174;2023-04-06T05:17:30;12.07;;;7.17;;
19883;SDS011;10104;50.732;10.174;2023-04-06T05:19:51;11.43;;;6.50;;
19883;SDS011;10104;50.732;10.174;2023-04-06T05:22:13;9.77;;;6.80;;
19883;SDS011;10104;50.732;10.174;2023-04-06T05:24:37;8.07;;;6.67;;
19883;SDS011;10104;50.732;10.174;2023-04-06T05:26:58;8.27;;;6.30;;
19883;SDS011;10104;50.732;10.174;2023-04-06T05:29:21;7.53;;;6.50;;
19883;SDS011;10104;50.732;10.174;2023-04-06T05:31:42;10.20;;;6.57;;
19883;SDS011;10104;50.732;10.174;2023-04-06T05:34:04;9.50;;;6.20;;
19883;SDS011;10104;50.732;10.174;2023-04-06T05:36:26;10.37;;;6.97;;
19883;SDS011;10104;50.732;10.174;2023-04-06T05:38:47;13.80;;;6.63;;
19883;SDS011;10104;50.732;10.174;2023-04-06T05:41:09;9.63;;;6.53;;
19883;SDS011;10104;50.732;10.174;2023-04-06T05:43:31;8.70;;;6.50;;
19883;SDS011;10104;50.732;10.174;2023-04-06T05:45:52;10.80;;;6.77;;
19883;SDS011;10104;50.732;10.174;2023-04-06T05:48:14;10.57;;;6.13;;
19883;SDS011;10104;50.732;10.174;2023-04-06T05:50:35;9.63;;;6.77;;
19883;SDS011;10104;50.732;10.174;2023-04-06T05:52:57;10.50;;;6.83;;
19883;SDS011;10104;50.732;10.174;2023-04-06T05:55:18;9.40;;;6.13;;
19883;SDS011;10104;50.732;10.174;2023-04-06T05:57:40;10.27;;;6.17;;
19883;SDS011;10104;50.732;10.174;2023-04-06T06:00:01;8.73;;;6.80;;
19883;SDS011;10104;50.732;10.174;2023-04-06T06:02:24;15.20;;;9.80;;
19883;SDS011;10104;50.732;10.174;2023-04-06T06:04:46;18.50;;;10.23;;
19883;SDS011;10104;50.732;10.174;2023-04-06T06:07:08;9.07;;;7.10;;
19883;SDS011;10104;50.732;10.174;2023-04-06T06:09:29;14.77;;;6.73;;
19883;SDS011;10104;50.732;10.174;2023-04-06T06:11:51;9.53;;;6.07;;
19883;SDS011;10104;50.732;10.174;2023-04-06T06:14:12;9.63;;;6.30;;
19883;SDS011;10104;50.732;10.174;2023-04-06T06:16:34;8.53;;;6.50;;
19883;SDS011;10104;50.732;10.174;2023-04-06T06:18:56;10.07;;;6.30;;
19883;SDS011;10104;50.732;10.174;2023-04-06T06:21:17;9.93;;;6.30;;
19883;SDS011;10104;50.732;10.174;2023-04-06T06:23:39;10.20;;;6.13;;
19883;SDS011;10104;50.732;10.174;2023-04-06T06:26:01;10.40;;;7.00;;
19883;SDS011;10104;50.732;10.174;2023-04-06T06:28:22;11.33;;;7.10;;
19883;SDS011;10104;50.732;10.174;2023-04-06T06:30:44;16.53;;;10.17;;
19883;SDS011;10104;50.732;10.174;2023-04-06T06:33:06;10.33;;;7.67;;
19883;SDS011;10104;50.732;10.174;2023-04-06T06:35:27;11.10;;;6.33;;
19883;SDS011;10104;50.732;10.174;2023-04-06T06:37:49;9.60;;;6.23;;
19883;SDS011;10104;50.732;10.174;2023-04-06T06:40:10;39.50;;;19.27;;
19883;SDS011;10104;50.732;10.174;2023-04-06T06:42:34;21.33;;;12.53;;
19883;SDS011;10104;50.732;10.174;2023-04-06T06:44:55;23.03;;;14.10;;
19883;SDS011;10104;50.732;10.174;2023-04-06T06:47:17;30.90;;;17.47;;
19883;SDS011;10104;50.732;10.174;2023-04-06T06:49:39;24.07;;;13.97;;
19883;SDS011;10104;50.732;10.174;2023-04-06T06:52:00;19.97;;;12.63;;
19883;SDS011;10104;50.732;10.174;2023-04-06T06:54:22;12.57;;;8.70;;
19883;SDS011;10104;50.732;10.174;2023-04-06T06:56:43;11.70;;;8.10;;
19883;SDS011;10104;50.732;10.174;2023-04-06T06:59:05;16.93;;;10.10;;
19883;SDS011;10104;50.732;10.174;2023-04-06T07:01:27;19.00;;;13.40;;
19883;SDS011;10104;50.732;10.174;2023-04-06T07:03:48;14.73;;;10.37;;
19883;SDS011;10104;50.732;10.174;2023-04-06T07:06:10;13.43;;;9.37;;
19883;SDS011;10104;50.732;10.174;2023-04-06T07:08:32;10.37;;;6.17;;
19883;SDS011;10104;50.732;10.174;2023-04-06T07:10:53;8.83;;;5.70;;
19883;SDS011;10104;50.732;10.174;2023-04-06T07:13:17;7.30;;;5.63;;
19883;SDS011;10104;50.732;10.174;2023-04-06T07:15:42;7.30;;;5.67;;
19883;SDS011;10104;50.732;10.174;2023-04-06T07:18:04;7.27;;;5.07;;
19883;SDS011;10104;50.732;10.174;2023-04-06T07:20:26;8.23;;;5.83;;
19883;SDS011;10104;50.732;10.174;2023-04-06T07:22:49;7.83;;;5.00;;
19883;SDS011;10104;50.732;10.174;2023-04-06T07:25:10;7.20;;;5.37;;
19883;SDS011;10104;50.732;10.174;2023-04-06T07:27:32;8.63;;;5.10;;
19883;SDS011;10104;50.732;10.174;2023-04-06T07:29:53;9.73;;;5.43;;
19883;SDS011;10104;50.732;10.174;2023-04-06T07:32:15;6.63;;;4.83;;
19883;SDS011;10104;50.732;10.174;2023-04-06T07:34:37;6.17;;;4.80;;
19883;SDS011;10104;50.732;10.174;2023-04-06T07:36:58;8.00;;;5.70;;
19883;SDS011;10104;50.732;10.174;2023-04-06T07:39:24;8.73;;;5.63;;
19883;SDS011;10104;50.732;10.174;2023-04-06T07:41:47;9.77;;;5.50;;
19883;SDS011;10104;50.732;10.174;2023-04-06T07:44:09;8.60;;;5.50;;
19883;SDS011;10104;50.732;10.174;2023-04-06T07:46:31;10.07;;;6.23;;
19883;SDS011;10104;50.732;10.174;2023-04-06T07:48:53;8.03;;;5.87;;
19883;SDS011;10104;50.732;10.174;2023-04-06T07:51:14;7.03;;;5.40;;
19883;SDS011;10104;50.732;10.174;2023-04-06T07:53:37;10.97;;;6.00;;
19883;SDS011;10104;50.732;10.174;2023-04-06T07:55:59;7.73;;;5.77;;
19883;SDS011;10104;50.732;10.174;2023-04-06T07:58:20;7.50;;;5.77;;
19883;SDS011;10104;50.732;10.174;2023-04-06T08:00:42;9.60;;;6.30;;
19883;SDS011;10104;50.732;10.174;2023-04-06T08:03:03;8.37;;;5.50;;
19883;SDS011;10104;50.732;10.174;2023-04-06T08:05:25;11.13;;;5.60;;
19883;SDS011;10104;50.732;10.174;2023-04-06T08:07:47;6.73;;;5.43;;
19883;SDS011;10104;50.732;10.174;2023-04-06T08:10:08;7.53;;;5.13;;
19883;SDS011;10104;50.732;10.174;2023-04-06T08:12:31;8.43;;;5.80;;
19883;SDS011;10104;50.732;10.174;2023-04-06T08:14:53;8.67;;;5.33;;
19883;SDS011;10104;50.732;10.174;2023-04-06T08:17:15;7.13;;;5.03;;
19883;SDS011;10104;50.732;10.174;2023-04-06T08:19:36;5.93;;;5.17;;
19883;SDS011;10104;50.732;10.174;2023-04-06T08:21:58;8.93;;;5.20;;
19883;SDS011;10104;50.732;10.174;2023-04-06T08:24:20;7.80;;;5.00;;
19883;SDS011;10104;50.732;10.174;2023-04-06T08:26:41;6.73;;;5.60;;
19883;SDS011;10104;50.732;10.174;2023-04-06T08:29:03;9.13;;;5.57;;
19883;SDS011;10104;50.732;10.174;2023-04-06T08:31:25;9.27;;;6.00;;
19883;SDS011;10104;50.732;10.174;2023-04-06T08:33:47;9.23;;;5.70;;
19883;SDS011;10104;50.732;10.174;2023-04-06T08:36:10;8.17;;;5.63;;
19883;SDS011;10104;50.732;10.174;2023-04-06T08:38:33;9.83;;;5.70;;
19883;SDS011;10104;50.732;10.174;2023-04-06T08:40:55;8.70;;;6.00;;
19883;SDS011;10104;50.732;10.174;2023-04-06T08:43:16;8.63;;;5.23;;
19883;SDS011;10104;50.732;10.174;2023-04-06T08:45:40;10.30;;;6.17;;
19883;SDS011;10104;50.732;10.174;2023-04-06T08:48:02;8.17;;;5.23;;
19883;SDS011;10104;50.732;10.174;2023-04-06T08:50:24;7.43;;;5.60;;
19883;SDS011;10104;50.732;10.174;2023-04-06T08:52:47;10.10;;;6.00;;
19883;SDS011;10104;50.732;10.174;2023-04-06T08:55:09;10.13;;;6.63;;
19883;SDS011;10104;50.732;10.174;2023-04-06T08:57:30;9.33;;;6.40;;
19883;SDS011;10104;50.732;10.174;2023-04-06T08:59:53;8.33;;;6.17;;
19883;SDS011;10104;50.732;10.174;2023-04-06T09:02:17;9.27;;;5.83;;
19883;SDS011;10104;50.732;10.174;2023-04-06T09:04:40;8.97;;;6.20;;
19883;SDS011;10104;50.732;10.174;2023-04-06T09:07:01;11.47;;;6.23;;
19883;SDS011;10104;50.732;10.174;2023-04-06T09:09:23;9.30;;;5.53;;
19883;SDS011;10104;50.732;10.174;2023-04-06T09:11:49;7.67;;;5.90;;
19883;SDS011;10104;50.732;10.174;2023-04-06T09:14:11;10.77;;;6.70;;
19883;SDS011;10104;50.732;10.174;2023-04-06T09:16:38;8.63;;;6.40;;
19883;SDS011;10104;50.732;10.174;2023-04-06T09:19:04;9.33;;;6.40;;
19883;SDS011;10104;50.732;10.174;2023-04-06T09:21:26;11.03;;;7.23;;
19883;SDS011;10104;50.732;10.174;2023-04-06T09:23:57;9.60;;;6.87;;
19883;SDS011;10104;50.732;10.174;2023-04-06T09:26:19;8.50;;;7.07;;
19883;SDS011;10104;50.732;10.174;2023-04-06T09:31:03;10.10;;;6.17;;
19883;SDS011;10104;50.732;10.174;2023-04-06T09:33:25;8.80;;;6.40;;
19883;SDS011;10104;50.732;10.174;2023-04-06T09:35:49;10.67;;;7.10;;
19883;SDS011;10104;50.732;10.174;2023-04-06T09:38:11;8.87;;;6.97;;
19883;SDS011;10104;50.732;10.174;2023-04-06T09:40:33;13.70;;;7.60;;
19883;SDS011;10104;50.732;10.174;2023-04-06T09:42:54;9.30;;;7.20;;
19883;SDS011;10104;50.732;10.174;2023-04-06T09:45:18;9.03;;;6.53;;
19883;SDS011;10104;50.732;10.174;2023-04-06T09:47:43;9.03;;;6.93;;
19883;SDS011;10104;50.732;10.174;2023-04-06T09:50:05;11.57;;;7.30;;
19883;SDS011;10104;50.732;10.174;2023-04-06T09:52:33;9.93;;;7.17;;
19883;SDS011;10104;50.732;10.174;2023-04-06T09:55:01;9.37;;;7.50;;
19883;SDS011;10104;50.732;10.174;2023-04-06T09:57:25;11.53;;;7.67;;
19883;SDS011;10104;50.732;10.174;2023-04-06T10:00:05;8.47;;;7.00;;
19883;SDS011;10104;50.732;10.174;2023-04-06T10:02:39;9.97;;;7.37;;
19883;SDS011;10104;50.732;10.174;2023-04-06T10:05:16;8.97;;;7.73;;
19883;SDS011;10104;50.732;10.174;2023-04-06T10:07:43;10.23;;;7.57;;
19883;SDS011;10104;50.732;10.174;2023-04-06T10:10:20;10.80;;;7.20;;
19883;SDS011;10104;50.732;10.174;2023-04-06T10:12:42;9.60;;;7.40;;
19883;SDS011;10104;50.732;10.174;2023-04-06T10:15:05;11.13;;;7.93;;
19883;SDS011;10104;50.732;10.174;2023-04-06T10:17:28;9.33;;;7.17;;
19883;SDS011;10104;50.732;10.174;2023-04-06T10:19:50;9.50;;;7.63;;
19883;SDS011;10104;50.732;10.174;2023-04-06T10:22:18;9.80;;;6.80;;
19883;SDS011;10104;50.732;10.174;2023-04-06T10:24:56;17.33;;;7.70;;
19883;SDS011;10104;50.732;10.174;2023-04-06T10:27:26;11.40;;;8.13;;
19883;SDS011;10104;50.732;10.174;2023-04-06T10:29:50;10.00;;;7.50;;
19883;SDS011;10104;50.732;10.174;2023-04-06T10:32:12;10.17;;;7.53;;
19883;SDS011;10104;50.732;10.174;2023-04-06T10:34:34;9.80;;;7.20;;
19883;SDS011;10104;50.732;10.174;2023-04-06T10:36:56;10.03;;;7.60;;
19883;SDS011;10104;50.732;10.174;2023-04-06T10:39:23;12.47;;;7.50;;
19883;SDS011;10104;50.732;10.174;2023-04-06T10:41:47;9.13;;;7.33;;
19883;SDS011;10104;50.732;10.174;2023-04-06T10:44:22;12.47;;;7.97;;
19883;SDS011;10104;50.732;10.174;2023-04-06T10:46:52;8.97;;;7.63;;
19883;SDS011;10104;50.732;10.174;2023-04-06T10:49:14;11.20;;;7.30;;
19883;SDS011;10104;50.732;10.174;2023-04-06T10:51:37;9.30;;;7.97;;
19883;SDS011;10104;50.732;10.174;2023-04-06T10:53:59;10.80;;;7.77;;
19883;SDS011;10104;50.732;10.174;2023-04-06T10:56:23;9.07;;;7.77;;
19883;SDS011;10104;50.732;10.174;2023-04-06T10:58:48;11.53;;;8.93;;
19883;SDS011;10104;50.732;10.174;2023-04-06T11:01:18;11.10;;;8.33;;
19883;SDS011;10104;50.732;10.174;2023-04-06T11:06:10;11.70;;;7.77;;
19883;SDS011;10104;50.732;10.174;2023-04-06T11:08:32;10.73;;;8.00;;
19883;SDS011;10104;50.732;10.174;2023-04-06T11:11:07;10.48;;;7.88;;
19883;SDS011;10104;50.732;10.174;2023-04-06T11:13:37;9.90;;;7.83;;
19883;SDS011;10104;50.732;10.174;2023-04-06T11:16:06;9.03;;;7.60;;
19883;SDS011;10104;50.732;10.174;2023-04-06T11:18:33;10.67;;;7.47;;
19883;SDS011;10104;50.732;10.174;2023-04-06T11:20:55;10.53;;;7.40;;
19883;SDS011;10104;50.732;10.174;2023-04-06T11:23:23;9.83;;;7.80;;
19883;SDS011;10104;50.732;10.174;2023-04-06T11:25:50;10.03;;;7.97;;
19883;SDS011;10104;50.732;10.174;2023-04-06T11:28:12;10.60;;;7.63;;
19883;SDS011;10104;50.732;10.174;2023-04-06T11:30:34;9.27;;;7.73;;
19883;SDS011;10104;50.732;10.174;2023-04-06T11:33:00;9.60;;;7.82;;
19883;SDS011;10104;50.732;10.174;2023-04-06T11:35:23;9.32;;;8.02;;
19883;SDS011;10104;50.732;10.174;2023-04-06T11:37:44;10.73;;;7.45;;
19883;SDS011;10104;50.732;10.174;2023-04-06T11:40:07;9.05;;;8.07;;
19883;SDS011;10104;50.732;10.174;2023-04-06T11:42:29;10.50;;;7.97;;
19883;SDS011;10104;50.732;10.174;2023-04-06T11:44:51;10.38;;;7.78;;
19883;SDS011;10104;50.732;10.174;2023-04-06T11:47:16;8.95;;;8.05;;
19883;SDS011;10104;50.732;10.174;2023-04-06T11:49:41;9.68;;;7.80;;
19883;SDS011;10104;50.732;10.174;2023-04-06T11:52:19;9.15;;;6.97;;
19883;SDS011;10104;50.732;10.174;2023-04-06T11:54:42;10.75;;;7.53;;
19883;SDS011;10104;50.732;10.174;2023-04-06T11:57:03;10.15;;;8.00;;
19883;SDS011;10104;50.732;10.174;2023-04-06T11:59:26;10.18;;;7.80;;
19883;SDS011;10104;50.732;10.174;2023-04-06T12:01:48;10.35;;;8.38;;
19883;SDS011;10104;50.732;10.174;2023-04-06T12:04:10;9.10;;;7.82;;
19883;SDS011;10104;50.732;10.174;2023-04-06T12:06:31;9.05;;;8.15;;
19883;SDS011;10104;50.732;10.174;2023-04-06T12:08:53;9.63;;;7.75;;
19883;SDS011;10104;50.732;10.174;2023-04-06T12:11:14;9.85;;;8.07;;
19883;SDS011;10104;50.732;10.174;2023-04-06T12:13:36;10.30;;;8.23;;
19883;SDS011;10104;50.732;10.174;2023-04-06T12:15:57;8.43;;;7.55;;
19883;SDS011;10104;50.732;10.174;2023-04-06T12:18:19;10.30;;;8.05;;
19883;SDS011;10104;50.732;10.174;2023-04-06T12:20:40;11.25;;;8.25;;
19883;SDS011;10104;50.732;10.174;2023-04-06T12:23:02;10.63;;;7.63;;
19883;SDS011;10104;50.732;10.174;2023-04-06T12:25:23;7.90;;;7.00;;
19883;SDS011;10104;50.732;10.174;2023-04-06T12:27:45;8.85;;;7.30;;
19883;SDS011;10104;50.732;10.174;2023-04-06T12:30:07;8.05;;;6.95;;
19883;SDS011;10104;50.732;10.174;2023-04-06T12:32:29;8.80;;;7.32;;
19883;SDS011;10104;50.732;10.174;2023-04-06T12:34:52;10.93;;;8.25;;
19883;SDS011;10104;50.732;10.174;2023-04-06T12:37:13;9.68;;;8.18;;
19883;SDS011;10104;50.732;10.174;2023-04-06T12:39:36;9.07;;;7.82;;
19883;SDS011;10104;50.732;10.174;2023-04-06T12:41:57;9.45;;;8.32;;
19883;SDS011;10104;50.732;10.174;2023-04-06T12:44:19;9.93;;;7.28;;
19883;SDS011;10104;50.732;10.174;2023-04-06T12:46:40;8.57;;;7.68;;
19883;SDS011;10104;50.732;10.174;2023-04-06T12:49:04;9.73;;;7.80;;
19883;SDS011;10104;50.732;10.174;2023-04-06T12:51:28;9.65;;;7.53;;
19883;SDS011;10104;50.732;10.174;2023-04-06T12:53:50;8.05;;;6.82;;
19883;SDS011;10104;50.732;10.174;2023-04-06T12:56:13;9.73;;;7.32;;
19883;SDS011;10104;50.732;10.174;2023-04-06T12:58:36;7.68;;;6.78;;
19883;SDS011;10104;50.732;10.174;2023-04-06T13:00:58;8.65;;;6.47;;
19883;SDS011;10104;50.732;10.174;2023-04-06T13:03:24;9.02;;;7.53;;
19883;SDS011;10104;50.732;10.174;2023-04-06T13:05:51;8.32;;;7.35;;
19883;SDS011;10104;50.732;10.174;2023-04-06T13:08:13;6.85;;;6.20;;
19883;SDS011;10104;50.732;10.174;2023-04-06T13:10:35;8.48;;;6.18;;
19883;SDS011;10104;50.732;10.174;2023-04-06T13:12:57;7.72;;;6.53;;
19883;SDS011;10104;50.732;10.174;2023-04-06T13:15:18;9.93;;;6.13;;
19883;SDS011;10104;50.732;10.174;2023-04-06T13:17:40;7.15;;;6.30;;
19883;SDS011;10104;50.732;10.174;2023-04-06T13:20:01;6.70;;;6.00;;
19883;SDS011;10104;50.732;10.174;2023-04-06T13:22:24;6.35;;;5.60;;
19883;SDS011;10104;50.732;10.174;2023-04-06T13:24:46;6.90;;;5.95;;
19883;SDS011;10104;50.732;10.174;2023-04-06T13:27:07;6.95;;;6.13;;
19883;SDS011;10104;50.732;10.174;2023-04-06T13:29:29;8.88;;;6.28;;
19883;SDS011;10104;50.732;10.174;2023-04-06T13:31:50;6.65;;;6.03;;
19883;SDS011;10104;50.732;10.174;2023-04-06T13:34:12;8.63;;;6.22;;
19883;SDS011;10104;50.732;10.174;2023-04-06T13:36:33;8.50;;;6.10;;
19883;SDS011;10104;50.732;10.174;2023-04-06T13:38:55;6.45;;;5.85;;
19883;SDS011;10104;50.732;10.174;2023-04-06T13:41:20;7.38;;;5.90;;
19883;SDS011;10104;50.732;10.174;2023-04-06T13:43:42;8.32;;;6.13;;
19883;SDS011;10104;50.732;10.174;2023-04-06T13:46:03;6.75;;;6.05;;
19883;SDS011;10104;50.732;10.174;2023-04-06T13:48:25;7.47;;;5.88;;
19883;SDS011;10104;50.732;10.174;2023-04-06T13:50:47;8.63;;;5.45;;
19883;SDS011;10104;50.732;10.174;2023-04-06T13:53:08;9.52;;;5.60;;
19883;SDS011;10104;50.732;10.174;2023-04-06T13:55:30;9.48;;;5.72;;
19883;SDS011;10104;50.732;10.174;2023-04-06T13:57:52;9.43;;;5.47;;
19883;SDS011;10104;50.732;10.174;2023-04-06T14:00:14;6.88;;;6.07;;
19883;SDS011;10104;50.732;10.174;2023-04-06T14:02:36;9.02;;;7.45;;
19883;SDS011;10104;50.732;10.174;2023-04-06T14:04:57;7.57;;;6.80;;